Parchman, Mississippi
Current Conditions -  °F | °C
As of 6:15 PM on Wednesday 28 Jan 2015 (Local Time) from KRNV Reporting Station
Clear Clear  
Wind Chill: 56°   Ceiling: Unl
Heat Index: 56°   Visibility: 10mi
Dew Point: 43°   Wind: 6mph
Humidity: 60%   Direction: 150°SSE
Pressure: 30.11"   Gusts: NA
Location:  33.92°N, 90.5°W
Report Text: KRNV 290015Z AUTO 15005KT 10SM CLR 14/06 A3011 RMK AO2 T01360059
Loading
Personal Weather Stations






























Interactive Weather Map New forecast layout! Learn more

10-Day Weather Forecast

Advertisements
Track Severe Weather on mobile